createdAt,value
2023-02-02T00:01:37.334Z,2.93
2023-02-02T00:04:04.681Z,4.57
2023-02-02T00:06:33.296Z,2.30
2023-02-02T00:09:02.325Z,2.20
2023-02-02T00:11:29.464Z,1.80
2023-02-02T00:13:56.660Z,2.00
2023-02-02T00:16:35.482Z,2.60
2023-02-02T00:19:12.906Z,2.10
2023-02-02T00:21:40.503Z,1.90
2023-02-02T00:24:09.683Z,2.53
2023-02-02T00:26:38.083Z,2.40
2023-02-02T00:29:06.446Z,2.20
2023-02-02T00:31:34.647Z,2.57
2023-02-02T00:34:01.944Z,1.73
2023-02-02T00:36:29.171Z,2.27
2023-02-02T00:38:56.796Z,2.87
2023-02-02T00:41:24.084Z,2.83
2023-02-02T00:44:12.456Z,2.20
2023-02-02T00:46:40.655Z,2.50
2023-02-02T00:49:08.803Z,2.87
2023-02-02T00:51:37.051Z,3.87
2023-02-02T00:54:04.696Z,3.20
2023-02-02T00:56:35.500Z,2.60
2023-02-02T00:59:03.450Z,1.60
2023-02-02T01:01:31.383Z,2.10
2023-02-02T01:03:58.968Z,4.10
2023-02-02T01:06:26.557Z,2.70
2023-02-02T01:08:54.696Z,3.10
2023-02-02T01:11:22.402Z,2.20
2023-02-02T01:13:49.552Z,2.43
2023-02-02T01:16:17.197Z,2.20
2023-02-02T01:18:44.657Z,3.20
2023-02-02T01:21:13.148Z,1.47
2023-02-02T01:23:41.296Z,3.17
2023-02-02T01:26:10.916Z,2.40
2023-02-02T01:28:39.338Z,3.30
2023-02-02T01:31:13.016Z,3.80
2023-02-02T01:33:41.650Z,3.03
2023-02-02T01:36:12.589Z,3.13
2023-02-02T01:38:40.982Z,2.37
2023-02-02T01:41:12.006Z,3.80
2023-02-02T01:43:44.891Z,4.10
2023-02-02T01:46:17.169Z,3.30
2023-02-02T01:48:49.439Z,3.40
2023-02-02T01:51:20.740Z,4.13
2023-02-02T01:53:50.824Z,2.90
2023-02-02T01:56:25.617Z,2.90
2023-02-02T01:58:53.189Z,3.33
2023-02-02T02:01:21.217Z,3.00
2023-02-02T02:03:48.392Z,3.53
2023-02-02T02:06:18.703Z,3.30
2023-02-02T02:08:52.153Z,3.17
2023-02-02T02:11:22.241Z,4.17
2023-02-02T02:14:09.651Z,2.93
2023-02-02T02:16:49.344Z,2.90
2023-02-02T02:20:06.606Z,2.90
2023-02-02T02:23:25.934Z,2.90
2023-02-02T02:26:30.105Z,2.97
2023-02-02T02:29:06.581Z,2.30
2023-02-02T02:31:58.378Z,3.63
2023-02-02T02:34:39.311Z,3.80
2023-02-02T02:37:18.434Z,2.50
2023-02-02T02:40:11.000Z,3.13
2023-02-02T02:42:43.221Z,3.30
2023-02-02T02:45:12.417Z,3.87
2023-02-02T02:47:41.973Z,3.00
2023-02-02T02:50:10.203Z,3.03
2023-02-02T02:52:38.512Z,3.37
2023-02-02T02:55:08.575Z,4.07
2023-02-02T02:57:50.116Z,2.67
2023-02-02T03:00:41.917Z,2.97
2023-02-02T03:03:34.506Z,2.60
2023-02-02T03:06:29.359Z,2.20
2023-02-02T03:09:08.711Z,3.23
2023-02-02T03:11:36.097Z,3.53
2023-02-02T03:14:04.345Z,2.77
2023-02-02T03:16:31.508Z,2.83
2023-02-02T03:18:59.001Z,2.10
2023-02-02T03:21:26.233Z,4.00
2023-02-02T03:23:53.400Z,2.20
2023-02-02T03:26:21.557Z,3.60
2023-02-02T03:28:51.320Z,3.00
2023-02-02T03:31:18.795Z,2.33
2023-02-02T03:33:45.989Z,2.83
2023-02-02T03:36:13.746Z,2.10
2023-02-02T03:38:40.946Z,3.30
2023-02-02T03:41:08.558Z,4.27
2023-02-02T03:43:35.724Z,2.60
2023-02-02T03:46:04.956Z,2.40
2023-02-02T03:48:36.593Z,1.63
2023-02-02T03:51:09.221Z,1.93
2023-02-02T03:53:36.370Z,2.00
2023-02-02T03:56:04.564Z,1.60
2023-02-02T03:58:31.749Z,1.73
2023-02-02T04:01:08.309Z,2.43
2023-02-02T04:03:35.822Z,1.77
2023-02-02T04:06:03.075Z,1.60
2023-02-02T04:08:55.423Z,1.60
2023-02-02T04:11:22.568Z,1.60
2023-02-02T04:13:49.808Z,1.63
2023-02-02T04:16:17.216Z,1.60
2023-02-02T04:18:44.528Z,2.10
2023-02-02T04:21:11.701Z,2.03
2023-02-02T04:23:39.356Z,1.70
2023-02-02T04:26:06.672Z,2.13
2023-02-02T04:28:34.059Z,1.50
2023-02-02T04:31:01.399Z,3.17
2023-02-02T04:33:29.116Z,3.57
2023-02-02T04:35:56.328Z,1.37
2023-02-02T04:38:23.591Z,2.47
2023-02-02T04:40:50.883Z,2.23
2023-02-02T04:43:18.530Z,2.53
2023-02-02T04:45:45.739Z,3.27
2023-02-02T04:48:12.955Z,3.03
2023-02-02T04:50:40.136Z,3.40
2023-02-02T04:53:07.380Z,5.27
2023-02-02T04:55:38.753Z,3.50
2023-02-02T04:58:06.053Z,3.90
2023-02-02T05:00:33.594Z,3.33
2023-02-02T05:03:01.401Z,3.40
2023-02-02T05:05:28.599Z,3.57
2023-02-02T05:07:55.787Z,4.23
2023-02-02T05:10:22.994Z,3.70
2023-02-02T05:12:52.944Z,4.30
2023-02-02T05:15:23.902Z,4.10
2023-02-02T05:17:51.199Z,5.03
2023-02-02T05:20:18.602Z,3.27
2023-02-02T05:22:49.736Z,3.43
2023-02-02T05:25:17.183Z,3.30
2023-02-02T05:27:45.408Z,4.10
2023-02-02T05:30:14.161Z,3.57
2023-02-02T05:32:41.707Z,3.70
2023-02-02T05:35:09.866Z,4.67
2023-02-02T05:37:37.452Z,3.23
2023-02-02T05:40:05.771Z,3.77
2023-02-02T05:42:32.937Z,4.27
2023-02-02T05:45:00.114Z,2.97
2023-02-02T05:47:27.940Z,4.10
2023-02-02T05:49:55.104Z,3.50
2023-02-02T05:52:48.209Z,3.67
2023-02-02T05:55:15.499Z,2.40
2023-02-02T05:57:42.663Z,2.80
2023-02-02T06:00:10.952Z,3.13
2023-02-02T06:02:40.810Z,3.63
2023-02-02T06:05:08.228Z,4.20
2023-02-02T06:07:36.014Z,2.63
2023-02-02T06:10:03.615Z,3.20
2023-02-02T06:12:31.821Z,3.07
2023-02-02T06:14:59.099Z,4.27
2023-02-02T06:17:26.296Z,3.13
2023-02-02T06:19:53.493Z,5.23
2023-02-02T06:22:20.679Z,3.70
2023-02-02T06:24:47.910Z,3.07
2023-02-02T06:27:15.151Z,4.63
2023-02-02T06:29:42.366Z,4.70
2023-02-02T06:32:09.897Z,3.60
2023-02-02T06:34:37.715Z,3.97
2023-02-02T06:37:04.863Z,3.20
2023-02-02T06:39:32.006Z,4.37
2023-02-02T06:42:02.031Z,3.30
2023-02-02T06:44:33.873Z,4.20
2023-02-02T06:47:01.055Z,3.63
2023-02-02T06:49:28.456Z,3.80
2023-02-02T06:51:55.646Z,4.27
2023-02-02T06:54:22.784Z,4.30
2023-02-02T06:56:49.969Z,3.57
2023-02-02T06:59:17.120Z,3.67
2023-02-02T07:01:44.281Z,3.80
2023-02-02T07:04:11.529Z,2.17
2023-02-02T07:06:39.743Z,2.17
2023-02-02T07:09:06.904Z,3.20
2023-02-02T07:11:36.168Z,2.80
2023-02-02T07:14:07.034Z,2.67
2023-02-02T07:16:35.083Z,3.10
2023-02-02T07:19:02.455Z,2.73
2023-02-02T07:21:36.322Z,2.60
2023-02-02T07:24:05.693Z,2.90
2023-02-02T07:26:35.335Z,3.20
2023-02-02T07:29:04.373Z,3.40
2023-02-02T07:31:34.097Z,4.30
2023-02-02T07:34:04.016Z,3.43
2023-02-02T07:36:31.213Z,3.37
2023-02-02T07:38:59.791Z,3.00
2023-02-02T07:41:29.491Z,3.23
2023-02-02T07:43:56.681Z,3.47
2023-02-02T07:46:23.909Z,3.10
2023-02-02T07:48:55.224Z,3.57
2023-02-02T07:51:23.274Z,3.00
2023-02-02T07:53:53.553Z,4.40
2023-02-02T07:56:23.881Z,3.60
2023-02-02T07:58:55.422Z,3.87
2023-02-02T08:01:25.896Z,2.60
2023-02-02T08:03:54.491Z,3.80
2023-02-02T08:06:31.308Z,5.97
2023-02-02T08:08:59.778Z,3.47
2023-02-02T08:11:28.203Z,3.00
2023-02-02T08:13:57.581Z,3.60
2023-02-02T08:16:25.842Z,3.47
2023-02-02T08:18:53.287Z,4.07
2023-02-02T08:21:21.189Z,3.23
2023-02-02T08:23:48.714Z,3.80
2023-02-02T08:26:22.203Z,3.93
2023-02-02T08:28:54.324Z,4.67
2023-02-02T08:31:32.935Z,3.27
2023-02-02T08:34:00.260Z,3.20
2023-02-02T08:36:29.953Z,3.00
2023-02-02T08:39:03.273Z,2.37
2023-02-02T08:41:30.638Z,2.93
2023-02-02T08:43:58.416Z,3.63
2023-02-02T08:46:25.740Z,2.40
2023-02-02T08:48:52.963Z,2.47
2023-02-02T08:51:20.368Z,2.70
2023-02-02T08:53:47.900Z,5.20
2023-02-02T08:56:20.111Z,2.87
2023-02-02T08:58:53.073Z,2.70
2023-02-02T09:01:23.757Z,3.23
2023-02-02T09:03:56.052Z,2.50
2023-02-02T09:06:28.081Z,3.10
2023-02-02T09:08:55.437Z,3.03
2023-02-02T09:11:22.636Z,3.60
2023-02-02T09:13:57.262Z,2.80
2023-02-02T09:16:26.920Z,2.60
2023-02-02T09:18:55.590Z,2.80
2023-02-02T09:21:23.016Z,2.77
2023-02-02T09:23:52.970Z,2.90
2023-02-02T09:26:20.179Z,2.53
2023-02-02T09:28:50.346Z,2.57
2023-02-02T09:31:17.966Z,2.80
2023-02-02T09:33:45.709Z,2.27
2023-02-02T09:36:18.098Z,2.50
2023-02-02T09:38:45.335Z,1.97
2023-02-02T09:41:36.529Z,2.30
2023-02-02T09:44:22.648Z,3.30
2023-02-02T09:47:27.597Z,2.30
2023-02-02T09:50:09.958Z,2.47
2023-02-02T09:52:51.703Z,2.53
2023-02-02T09:55:31.410Z,2.60
2023-02-02T09:58:10.859Z,2.40
2023-02-02T10:00:43.885Z,2.33
2023-02-02T10:03:19.195Z,2.20
2023-02-02T10:05:50.216Z,2.67
2023-02-02T10:08:34.400Z,2.73
2023-02-02T10:11:13.122Z,2.20
2023-02-02T10:13:43.525Z,1.30
2023-02-02T10:16:17.525Z,2.43
2023-02-02T10:19:01.747Z,2.20
2023-02-02T10:21:59.673Z,2.90
2023-02-02T10:24:29.754Z,2.13
2023-02-02T10:27:11.359Z,2.60
2023-02-02T10:29:56.211Z,2.13
2023-02-02T10:32:47.561Z,2.20
2023-02-02T10:35:37.126Z,2.60
2023-02-02T10:38:37.953Z,1.40
2023-02-02T10:41:25.550Z,1.70
2023-02-02T10:44:06.855Z,1.83
2023-02-02T10:46:42.584Z,1.13
2023-02-02T10:49:33.681Z,1.57
2023-02-02T10:52:26.616Z,1.20
2023-02-02T10:55:04.005Z,1.57
2023-02-02T10:57:53.307Z,0.90
2023-02-02T11:00:39.029Z,1.50
2023-02-02T11:03:09.945Z,1.27
2023-02-02T11:05:56.828Z,1.03
2023-02-02T11:08:40.745Z,1.30
2023-02-02T11:11:19.727Z,1.00
2023-02-02T11:13:57.928Z,1.20
2023-02-02T11:16:38.911Z,1.20
2023-02-02T11:19:24.151Z,0.93
2023-02-02T11:21:54.475Z,1.27
2023-02-02T11:24:31.422Z,1.23
2023-02-02T11:27:18.118Z,0.67
2023-02-02T11:29:52.037Z,1.23
2023-02-02T11:32:29.474Z,0.90
2023-02-02T11:35:09.129Z,1.17
2023-02-02T11:37:38.256Z,1.17
2023-02-02T11:40:31.636Z,0.80
2023-02-02T11:43:20.740Z,1.40
2023-02-02T11:46:02.836Z,0.93
2023-02-02T11:48:37.851Z,0.93
2023-02-02T11:51:08.045Z,1.33
2023-02-02T11:53:47.875Z,2.20
2023-02-02T11:56:26.172Z,1.30
2023-02-02T11:58:56.378Z,1.10
2023-02-02T12:01:34.939Z,0.97
2023-02-02T12:04:24.192Z,1.50
2023-02-02T12:06:51.536Z,1.10
2023-02-02T12:09:24.778Z,1.20
2023-02-02T12:12:29.915Z,1.30
2023-02-02T12:15:30.663Z,0.87
2023-02-02T12:18:13.488Z,1.63
2023-02-02T12:21:03.398Z,1.40
2023-02-02T12:23:46.058Z,1.10
2023-02-02T12:26:21.408Z,0.90
2023-02-02T12:29:18.687Z,1.03
2023-02-02T12:31:51.998Z,1.00
2023-02-02T12:34:44.120Z,0.70
2023-02-02T12:37:51.650Z,1.40
2023-02-02T12:40:44.363Z,1.10
2023-02-02T12:43:27.934Z,0.70
2023-02-02T12:46:12.609Z,0.97
2023-02-02T12:48:58.850Z,1.13
2023-02-02T12:51:45.857Z,1.03
2023-02-02T12:54:56.230Z,1.23
2023-02-02T12:58:07.516Z,1.10
2023-02-02T13:00:49.704Z,1.50
2023-02-02T13:03:52.707Z,1.33
2023-02-02T13:06:29.571Z,1.20
2023-02-02T13:09:14.005Z,1.20
2023-02-02T13:12:09.532Z,1.23
2023-02-02T13:14:48.085Z,1.10
2023-02-02T13:17:23.993Z,1.70
2023-02-02T13:19:55.509Z,1.20
2023-02-02T13:22:28.963Z,1.57
2023-02-02T13:25:01.400Z,1.40
2023-02-02T13:27:30.564Z,0.93
2023-02-02T13:30:04.096Z,1.10
2023-02-02T13:32:36.160Z,1.10
2023-02-02T13:35:17.661Z,1.10
2023-02-02T13:37:49.280Z,1.03
2023-02-02T13:40:24.384Z,1.00
2023-02-02T13:43:04.524Z,0.70
2023-02-02T13:46:04.986Z,1.50
2023-02-02T13:48:53.413Z,1.10
2023-02-02T13:51:54.854Z,0.93
2023-02-02T13:54:59.671Z,0.87
2023-02-02T13:57:59.134Z,0.80
2023-02-02T14:00:32.021Z,1.40
2023-02-02T14:03:05.976Z,0.90
2023-02-02T14:05:41.443Z,1.17
2023-02-02T14:08:11.811Z,1.83
2023-02-02T14:10:54.355Z,1.10
2023-02-02T14:14:02.771Z,1.30
2023-02-02T14:16:32.774Z,1.23
2023-02-02T14:19:04.972Z,0.93
2023-02-02T14:21:32.889Z,0.60
2023-02-02T14:24:04.905Z,0.83
2023-02-02T14:26:54.895Z,1.07
2023-02-02T14:29:29.389Z,1.00
2023-02-02T14:31:58.969Z,0.83
2023-02-02T14:34:30.930Z,1.17
2023-02-02T14:37:28.639Z,1.00
2023-02-02T14:40:06.939Z,0.90
2023-02-02T14:43:14.874Z,0.90
2023-02-02T14:45:49.405Z,0.80
2023-02-02T14:48:22.388Z,0.90
2023-02-02T14:50:56.623Z,0.90
2023-02-02T14:53:39.550Z,1.47
2023-02-02T14:56:14.971Z,1.67
2023-02-02T14:58:51.395Z,1.00
2023-02-02T15:01:22.795Z,1.03
2023-02-02T15:04:17.511Z,1.27
2023-02-02T15:06:46.073Z,1.13
2023-02-02T15:09:29.259Z,1.00
2023-02-02T15:12:02.886Z,1.23
2023-02-02T15:14:38.652Z,1.43
2023-02-02T15:17:33.137Z,2.20
2023-02-02T15:20:21.869Z,1.38
2023-02-02T15:23:19.025Z,2.47
2023-02-02T15:26:12.356Z,2.40
2023-02-02T15:29:00.123Z,2.80
2023-02-02T15:31:40.205Z,2.77
2023-02-02T15:34:27.820Z,1.63
2023-02-02T15:36:58.846Z,1.53
2023-02-02T15:39:41.093Z,4.17
2023-02-02T15:42:36.181Z,1.77
2023-02-02T15:45:03.810Z,1.93
2023-02-02T15:47:34.994Z,1.20
2023-02-02T15:50:17.731Z,1.53
2023-02-02T15:52:50.579Z,2.03
2023-02-02T15:55:36.145Z,1.30
2023-02-02T15:58:21.825Z,1.30
2023-02-02T16:00:56.281Z,1.80
2023-02-02T16:03:30.893Z,2.20
2023-02-02T16:05:58.644Z,2.27
2023-02-02T16:08:29.776Z,1.57
2023-02-02T16:11:19.759Z,1.87
2023-02-02T16:14:04.897Z,1.53
2023-02-02T16:16:37.199Z,1.87
2023-02-02T16:19:22.020Z,1.33
2023-02-02T16:22:02.676Z,1.13
2023-02-02T16:24:33.877Z,1.70
2023-02-02T16:27:05.619Z,1.03
2023-02-02T16:29:34.583Z,1.70
2023-02-02T16:32:02.357Z,1.17
2023-02-02T16:34:41.975Z,1.00
2023-02-02T16:37:22.415Z,1.23
2023-02-02T16:39:49.886Z,1.83
2023-02-02T16:42:29.276Z,1.90
2023-02-02T16:45:00.209Z,2.70
2023-02-02T16:47:29.176Z,2.87
2023-02-02T16:50:08.646Z,3.73
2023-02-02T16:53:04.935Z,3.53
2023-02-02T16:55:49.298Z,3.73
2023-02-02T16:58:23.200Z,3.80
2023-02-02T17:01:13.991Z,4.27
2023-02-02T17:03:55.020Z,3.87
2023-02-02T17:06:45.847Z,3.97
2023-02-02T17:09:32.434Z,3.87
2023-02-02T17:12:09.227Z,3.87
2023-02-02T17:14:48.893Z,3.70
2023-02-02T17:17:16.051Z,4.40
2023-02-02T17:19:43.203Z,4.50
2023-02-02T17:22:11.239Z,4.33
2023-02-02T17:24:38.420Z,4.60
2023-02-02T17:27:05.655Z,5.90
2023-02-02T17:29:32.916Z,4.53
2023-02-02T17:32:00.517Z,4.50
2023-02-02T17:34:28.730Z,4.63
2023-02-02T17:36:55.887Z,4.70
2023-02-02T17:39:23.667Z,4.30
2023-02-02T17:41:51.486Z,4.27
2023-02-02T17:44:18.721Z,5.00
2023-02-02T17:46:45.967Z,5.50
2023-02-02T17:49:13.251Z,5.40
2023-02-02T17:51:43.373Z,5.93
2023-02-02T17:54:15.251Z,4.27
2023-02-02T17:56:43.501Z,4.07
2023-02-02T17:59:12.169Z,3.10
2023-02-02T18:01:41.493Z,2.90
2023-02-02T18:04:12.849Z,3.87
2023-02-02T18:06:40.195Z,4.70
2023-02-02T18:09:07.486Z,3.97
2023-02-02T18:11:34.727Z,3.70
2023-02-02T18:14:01.987Z,3.67
2023-02-02T18:16:29.267Z,4.30
2023-02-02T18:18:58.828Z,3.80
2023-02-02T18:21:29.861Z,3.70
2023-02-02T18:23:57.063Z,3.50
2023-02-02T18:26:24.378Z,3.50
2023-02-02T18:28:52.238Z,4.40
2023-02-02T18:31:21.415Z,4.10
2023-02-02T18:33:48.777Z,4.57
2023-02-02T18:36:19.854Z,4.80
2023-02-02T18:38:48.800Z,5.53
2023-02-02T18:41:17.916Z,7.13
2023-02-02T18:43:48.262Z,6.47
2023-02-02T18:46:16.649Z,5.60
2023-02-02T18:48:43.829Z,5.30
2023-02-02T18:51:17.927Z,4.63
2023-02-02T18:53:46.439Z,4.07
2023-02-02T18:56:14.593Z,3.20
2023-02-02T18:58:42.666Z,3.40
2023-02-02T19:01:13.683Z,3.43
2023-02-02T19:03:43.057Z,3.43
2023-02-02T19:06:28.987Z,3.10
2023-02-02T19:08:56.182Z,3.80
2023-02-02T19:11:26.555Z,2.93
2023-02-02T19:13:53.913Z,3.40
2023-02-02T19:16:29.839Z,3.00
2023-02-02T19:19:00.294Z,2.80
2023-02-02T19:21:30.378Z,3.90
2023-02-02T19:23:59.230Z,4.10
2023-02-02T19:26:28.171Z,4.37
2023-02-02T19:29:01.155Z,4.90
2023-02-02T19:31:29.092Z,3.77
2023-02-02T19:33:57.744Z,4.60
2023-02-02T19:36:27.709Z,5.10
2023-02-02T19:39:17.376Z,5.50
2023-02-02T19:41:44.709Z,4.47
2023-02-02T19:44:18.028Z,4.80
2023-02-02T19:46:50.839Z,4.70
2023-02-02T19:49:28.076Z,6.00
2023-02-02T19:51:58.135Z,5.37
2023-02-02T19:54:27.158Z,5.80
2023-02-02T19:57:10.791Z,5.40
2023-02-02T19:59:37.984Z,7.10
2023-02-02T20:02:43.252Z,5.87
2023-02-02T20:05:11.063Z,5.13
2023-02-02T20:07:38.957Z,5.23
2023-02-02T20:10:35.512Z,5.93
2023-02-02T20:13:14.685Z,5.30
2023-02-02T20:15:42.039Z,5.13
2023-02-02T20:18:24.408Z,6.93
2023-02-02T20:20:55.676Z,4.00
2023-02-02T20:23:40.419Z,5.37
2023-02-02T20:26:21.723Z,5.30
2023-02-02T20:28:50.046Z,6.20
2023-02-02T20:31:20.562Z,6.27
2023-02-02T20:33:51.903Z,6.60
2023-02-02T20:36:35.698Z,4.70
2023-02-02T20:39:25.098Z,6.00
2023-02-02T20:41:54.737Z,4.67
2023-02-02T20:44:22.068Z,4.90
2023-02-02T20:46:49.341Z,5.10
2023-02-02T20:49:17.107Z,4.90
2023-02-02T20:51:44.571Z,3.87
2023-02-02T20:54:11.910Z,4.57
2023-02-02T20:56:39.136Z,2.07
2023-02-02T20:59:07.409Z,3.13
2023-02-02T21:01:34.765Z,2.80
2023-02-02T21:04:05.230Z,4.13
2023-02-02T21:06:34.890Z,4.07
2023-02-02T21:09:03.579Z,3.80
2023-02-02T21:11:30.828Z,4.00
2023-02-02T21:13:59.911Z,4.13
2023-02-02T21:16:27.951Z,4.60
2023-02-02T21:18:55.184Z,3.83
2023-02-02T21:21:22.561Z,4.30
2023-02-02T21:23:51.487Z,4.97
2023-02-02T21:26:22.111Z,4.10
2023-02-02T21:28:49.773Z,3.50
2023-02-02T21:31:17.772Z,4.53
2023-02-02T21:33:47.055Z,4.73
2023-02-02T21:36:34.384Z,4.27
2023-02-02T21:39:20.223Z,3.43
2023-02-02T21:41:49.524Z,4.20
2023-02-02T21:44:22.280Z,2.80
2023-02-02T21:46:51.593Z,4.23
2023-02-02T21:49:25.330Z,5.30
2023-02-02T21:51:57.365Z,4.53
2023-02-02T21:54:27.114Z,3.67
2023-02-02T21:56:55.344Z,3.33
2023-02-02T21:59:28.301Z,3.93
2023-02-02T22:01:56.159Z,4.50
2023-02-02T22:04:26.337Z,4.97
2023-02-02T22:07:01.845Z,5.17
2023-02-02T22:09:39.499Z,5.60
2023-02-02T22:12:24.292Z,4.53
2023-02-02T22:15:00.297Z,5.37
2023-02-02T22:17:41.672Z,5.93
2023-02-02T22:20:15.013Z,5.23
2023-02-02T22:22:46.358Z,4.40
2023-02-02T22:25:16.578Z,4.80
2023-02-02T22:27:53.676Z,4.70
2023-02-02T22:30:32.782Z,4.80
2023-02-02T22:33:00.143Z,4.20
2023-02-02T22:35:27.794Z,4.57
2023-02-02T22:37:55.022Z,4.93
2023-02-02T22:40:22.721Z,4.60
2023-02-02T22:42:51.947Z,4.87
2023-02-02T22:45:19.194Z,5.60
2023-02-02T22:47:47.666Z,7.00
2023-02-02T22:50:16.581Z,5.60
2023-02-02T22:52:43.957Z,5.83
2023-02-02T22:55:12.199Z,5.13
2023-02-02T22:57:40.486Z,5.80
2023-02-02T23:00:16.575Z,5.97
2023-02-02T23:02:44.106Z,6.10
2023-02-02T23:05:13.327Z,6.90
2023-02-02T23:07:43.784Z,6.50
2023-02-02T23:10:17.111Z,6.93
2023-02-02T23:12:44.644Z,5.80
2023-02-02T23:15:13.118Z,7.30
2023-02-02T23:17:40.687Z,7.93
2023-02-02T23:20:12.399Z,7.83
2023-02-02T23:22:39.594Z,7.07
2023-02-02T23:25:07.364Z,6.53
2023-02-02T23:27:34.608Z,7.57
2023-02-02T23:30:03.988Z,7.70
2023-02-02T23:32:31.695Z,8.80
2023-02-02T23:34:59.086Z,8.90
2023-02-02T23:37:26.335Z,12.13
2023-02-02T23:39:53.493Z,11.10
2023-02-02T23:42:20.643Z,8.53
2023-02-02T23:44:48.232Z,8.23
2023-02-02T23:47:15.743Z,10.30
2023-02-02T23:49:43.587Z,11.27
2023-02-02T23:52:11.059Z,9.07
2023-02-02T23:54:39.432Z,10.00
2023-02-02T23:57:06.670Z,10.40
2023-02-02T23:59:33.811Z,10.60
